Time;durP1;ratioP1;P1;durP2;ratioP2;P2;SDS_P1;SDS_P2;PMS_P1;PMS_P2;Temp;Humidity;BMP_temperature;BMP_pressure;BME280_temperature;BME280_humidity;BME280_pressure;Samples;Min_cycle;Max_cycle;Signal;HPM_P1;HPM_P2
2023/03/25 00:02:23;;;;;;;6.57;2.85;;;;;;;7.60;100.00;99638.16;5050184;28;20179;-49
2023/03/25 00:04:50;;;;;;;6.28;2.47;;;;;;;7.53;100.00;99632.25;5067546;28;20236;-46
2023/03/25 00:07:18;;;;;;;8.52;2.30;;;;;;;7.52;100.00;99643.84;5052274;28;20195;-44
2023/03/25 00:09:43;;;;;;;6.93;2.60;;;;;;;7.55;100.00;99632.19;5050587;28;20559;-49
2023/03/25 00:12:09;;;;;;;6.82;2.65;;;;;;;7.57;100.00;99627.66;5052003;28;20175;-46
2023/03/25 00:14:34;;;;;;;5.90;2.70;;;;;;;7.53;100.00;99637.56;5051580;28;20199;-47
2023/03/25 00:17:00;;;;;;;5.60;2.70;;;;;;;7.48;100.00;99628.94;5051901;28;20519;-47
2023/03/25 00:19:26;;;;;;;5.05;2.83;;;;;;;7.49;100.00;99624.47;5051589;28;20163;-49
2023/03/25 00:21:52;;;;;;;5.75;3.00;;;;;;;7.48;100.00;99622.72;5051964;28;20650;-46
2023/03/25 00:24:18;;;;;;;7.30;2.55;;;;;;;7.52;100.00;99622.53;5059386;28;20190;-48
2023/03/25 00:26:45;;;;;;;8.73;2.95;;;;;;;7.46;100.00;99619.28;5051498;28;20200;-47
2023/03/25 00:29:12;;;;;;;9.52;3.13;;;;;;;7.42;100.00;99608.75;5051671;28;20550;-46
2023/03/25 00:31:38;;;;;;;6.13;3.10;;;;;;;7.52;100.00;99621.63;5051476;28;20174;-47
2023/03/25 00:34:04;;;;;;;6.72;2.80;;;;;;;7.53;100.00;99607.41;5051683;28;20249;-49
2023/03/25 00:36:29;;;;;;;5.00;2.78;;;;;;;7.51;100.00;99607.47;5050288;28;20656;-46
2023/03/25 00:38:55;;;;;;;8.25;2.90;;;;;;;7.54;100.00;99609.13;5051316;28;20167;-47
2023/03/25 00:41:24;;;;;;;5.13;2.50;;;;;;;7.58;100.00;99608.03;5050142;28;20251;-49
2023/03/25 00:43:51;;;;;;;8.90;2.50;;;;;;;7.55;100.00;99597.53;5050965;28;20569;-47
2023/03/25 00:46:19;;;;;;;5.80;2.72;;;;;;;7.58;100.00;99590.25;5051199;28;20786;-47
2023/03/25 00:48:44;;;;;;;5.18;2.50;;;;;;;7.60;100.00;99592.84;5033185;28;20175;-49
2023/03/25 00:51:13;;;;;;;6.95;2.42;;;;;;;7.61;100.00;99590.13;5032366;28;20199;-48
2023/03/25 00:53:39;;;;;;;5.90;2.38;;;;;;;7.63;100.00;99592.69;5031358;28;20599;-49
2023/03/25 00:56:05;;;;;;;7.55;2.58;;;;;;;7.64;100.00;99597.97;5029700;28;20258;-47
2023/03/25 00:58:31;;;;;;;7.32;2.53;;;;;;;7.61;100.00;99598.13;5033304;28;20190;-50
2023/03/25 01:00:56;;;;;;;4.97;2.97;;;;;;;7.62;100.00;99590.97;5051054;28;20175;-45
2023/03/25 01:03:23;;;;;;;6.45;2.67;;;;;;;7.70;100.00;99594.16;5050721;28;20167;-46
2023/03/25 01:05:50;;;;;;;6.13;2.80;;;;;;;7.66;100.00;99586.38;5050897;28;20855;-47
2023/03/25 01:08:16;;;;;;;5.25;2.33;;;;;;;7.66;100.00;99584.56;5050736;28;20332;-48
2023/03/25 01:10:42;;;;;;;7.43;3.53;;;;;;;7.64;100.00;99597.09;5050866;28;20199;-46
2023/03/25 01:13:08;;;;;;;6.82;2.95;;;;;;;7.60;100.00;99587.50;5050614;28;20167;-50
2023/03/25 01:15:34;;;;;;;7.50;3.53;;;;;;;7.55;100.00;99592.19;5050778;28;20196;-49
2023/03/25 01:18:00;;;;;;;5.93;3.10;;;;;;;7.58;100.00;99589.38;5050630;28;20183;-44
2023/03/25 01:20:25;;;;;;;9.90;3.67;;;;;;;7.56;100.00;99585.91;5050611;28;20379;-46
2023/03/25 01:22:52;;;;;;;8.20;3.38;;;;;;;7.53;100.00;99594.94;5050274;28;20214;-49
2023/03/25 01:25:17;;;;;;;8.25;3.55;;;;;;;7.53;100.00;99589.59;5050274;28;20887;-47
2023/03/25 01:27:43;;;;;;;6.30;3.33;;;;;;;7.60;100.00;99576.84;5050368;28;20183;-47
2023/03/25 01:30:09;;;;;;;7.38;4.05;;;;;;;7.58;100.00;99586.72;5050282;28;20298;-48
2023/03/25 01:32:35;;;;;;;8.85;3.80;;;;;;;7.64;100.00;99567.78;5041624;28;20283;-45
2023/03/25 01:35:00;;;;;;;7.13;4.03;;;;;;;7.61;100.00;99574.13;5049871;28;20191;-48
2023/03/25 01:37:26;;;;;;;6.97;3.85;;;;;;;7.62;100.00;99572.31;5032354;28;20321;-47
2023/03/25 01:39:52;;;;;;;9.02;3.92;;;;;;;7.63;100.00;99566.03;5050559;28;20182;-46
2023/03/25 01:42:17;;;;;;;8.18;4.13;;;;;;;7.67;100.00;99562.28;5050479;28;20160;-44
2023/03/25 01:44:43;;;;;;;6.18;4.03;;;;;;;7.66;100.00;99575.72;5042582;28;20771;-48
2023/03/25 01:47:09;;;;;;;7.65;4.40;;;;;;;7.62;100.00;99573.19;5065836;28;20163;-44
2023/03/25 01:49:45;;;;;;;8.85;4.60;;;;;;;7.73;100.00;99574.50;5065527;28;20254;-44
2023/03/25 01:52:17;;;;;;;9.07;4.43;;;;;;;7.71;100.00;99573.69;5050520;28;20166;-45
2023/03/25 01:54:45;;;;;;;10.65;4.53;;;;;;;7.68;100.00;99566.72;5050222;28;20672;-44
2023/03/25 01:57:17;;;;;;;9.45;4.63;;;;;;;7.68;100.00;99564.03;5055319;28;20191;-48
2023/03/25 01:59:42;;;;;;;6.47;4.55;;;;;;;7.65;100.00;99572.16;5049387;28;20179;-45
2023/03/25 02:02:16;;;;;;;8.80;4.82;;;;;;;7.67;100.00;99572.97;5048077;28;20266;-47
2023/03/25 02:04:57;;;;;;;6.38;4.82;;;;;;;7.65;100.00;99564.16;5049149;28;20238;-49
2023/03/25 02:07:29;;;;;;;9.98;5.80;;;;;;;7.71;100.00;99566.56;5048698;28;20183;-47
2023/03/25 02:10:01;;;;;;;10.07;5.72;;;;;;;7.63;100.00;99560.69;5049277;28;20167;-45
2023/03/25 02:12:27;;;;;;;10.73;6.00;;;;;;;7.67;100.00;99564.09;5046746;28;20175;-46
2023/03/25 02:14:53;;;;;;;14.18;6.15;;;;;;;7.60;100.00;99558.19;5048803;28;20673;-47
2023/03/25 02:17:32;;;;;;;11.52;6.72;;;;;;;7.50;100.00;99575.53;5062769;28;20646;-46
2023/03/25 02:20:12;;;;;;;10.18;6.47;;;;;;;7.48;100.00;99566.75;5048848;28;20183;-46
2023/03/25 02:23:03;;;;;;;10.60;6.97;;;;;;;7.46;100.00;99576.63;5048853;28;20559;-45
2023/03/25 02:26:04;;;;;;;10.25;7.32;;;;;;;7.38;100.00;99547.66;5048553;28;20281;-46
2023/03/25 02:28:39;;;;;;;14.48;7.07;;;;;;;7.37;100.00;99560.13;5049169;28;20277;-46
2023/03/25 02:31:08;;;;;;;10.27;6.75;;;;;;;7.39;100.00;99557.38;5048619;28;20187;-48
2023/03/25 02:34:01;;;;;;;13.18;7.43;;;;;;;7.34;100.00;99564.72;5049207;28;20327;-46
2023/03/25 02:36:29;;;;;;;11.68;6.85;;;;;;;7.31;100.00;99556.88;5047852;28;20256;-49
2023/03/25 02:39:02;;;;;;;9.25;7.13;;;;;;;7.29;100.00;99556.94;5053529;28;20658;-47
2023/03/25 02:41:50;;;;;;;10.63;6.70;;;;;;;7.27;100.00;99564.13;5061865;28;20630;-45
2023/03/25 02:44:47;;;;;;;10.30;6.28;;;;;;;7.34;100.00;99564.72;5040663;28;20621;-48
2023/03/25 02:47:17;;;;;;;12.20;6.95;;;;;;;7.36;100.00;99557.53;5029066;28;20214;-44
2023/03/25 02:49:53;;;;;;;12.38;7.13;;;;;;;7.33;100.00;99553.19;5062676;28;20627;-48
2023/03/25 02:52:30;;;;;;;14.18;7.00;;;;;;;7.33;100.00;99566.53;5047478;28;20582;-48
2023/03/25 02:55:00;;;;;;;11.00;7.43;;;;;;;7.34;100.00;99559.38;5061625;28;20732;-45
2023/03/25 02:57:32;;;;;;;14.18;7.63;;;;;;;7.39;100.00;99552.03;5049693;28;20191;-48
2023/03/25 02:59:58;;;;;;;11.30;7.60;;;;;;;7.34;100.00;99548.72;5046782;28;20180;-48
2023/03/25 03:02:31;;;;;;;17.75;7.40;;;;;;;7.35;100.00;99545.16;5054016;28;20180;-49
2023/03/25 03:04:57;;;;;;;15.90;8.18;;;;;;;7.33;100.00;99547.00;5071334;28;20272;-48
2023/03/25 03:07:32;;;;;;;12.23;7.70;;;;;;;7.38;100.00;99537.00;5048111;28;20183;-48
2023/03/25 03:10:03;;;;;;;10.77;7.75;;;;;;;7.36;100.00;99550.38;5065528;28;20186;-46
2023/03/25 03:12:43;;;;;;;9.07;7.25;;;;;;;7.40;100.00;99537.81;5051561;28;20552;-46
2023/03/25 03:15:40;;;;;;;11.70;7.70;;;;;;;7.42;100.00;99546.59;5051168;28;20207;-47
2023/03/25 03:18:13;;;;;;;15.00;6.75;;;;;;;7.39;100.00;99538.72;5050408;28;20260;-46
2023/03/25 03:20:54;;;;;;;13.73;8.02;;;;;;;7.42;100.00;99543.94;5051065;28;20649;-48
2023/03/25 03:23:35;;;;;;;14.93;8.07;;;;;;;7.37;100.00;99530.81;5051507;28;20184;-48
2023/03/25 03:26:19;;;;;;;10.98;7.22;;;;;;;7.39;100.00;99544.94;5051248;28;20576;-46
2023/03/25 03:28:51;;;;;;;9.60;7.28;;;;;;;7.40;100.00;99549.31;5052079;28;20191;-47
2023/03/25 03:31:28;;;;;;;14.77;7.97;;;;;;;7.40;100.00;99551.97;5051659;28;20257;-47
2023/03/25 03:34:01;;;;;;;14.48;7.43;;;;;;;7.40;100.00;99557.31;5051631;28;20202;-45
2023/03/25 03:36:35;;;;;;;10.85;7.20;;;;;;;7.43;100.00;99569.63;5051534;28;20529;-44
2023/03/25 03:39:06;;;;;;;17.60;7.38;;;;;;;7.41;100.00;99564.38;5051037;28;20183;-45
2023/03/25 03:41:35;;;;;;;13.77;7.70;;;;;;;7.48;100.00;99553.41;5050722;28;20262;-45
2023/03/25 03:44:07;;;;;;;13.23;7.90;;;;;;;7.39;100.00;99554.72;5051141;28;20278;-46
2023/03/25 03:46:42;;;;;;;14.70;8.15;;;;;;;7.37;100.00;99556.59;5049840;28;20689;-45
2023/03/25 03:49:16;;;;;;;12.15;7.68;;;;;;;7.40;100.00;99553.78;5052007;28;20223;-46
2023/03/25 03:51:51;;;;;;;11.63;7.10;;;;;;;7.33;100.00;99563.00;5052125;28;20213;-43
2023/03/25 03:54:22;;;;;;;15.85;7.82;;;;;;;7.36;100.00;99566.38;5051746;28;20181;-49
2023/03/25 03:57:01;;;;;;;11.85;7.30;;;;;;;7.26;100.00;99570.41;5052215;28;20215;-44
2023/03/25 03:59:41;;;;;;;11.98;6.72;;;;;;;7.29;100.00;99564.06;5052170;28;20203;-47
2023/03/25 04:02:22;;;;;;;11.63;6.53;;;;;;;7.25;100.00;99554.47;5052280;28;20191;-43
2023/03/25 04:04:48;;;;;;;12.10;5.65;;;;;;;7.20;100.00;99566.22;5052244;28;20225;-43
2023/03/25 04:07:18;;;;;;;9.55;5.32;;;;;;;7.24;100.00;99566.94;5052140;28;20596;-42
2023/03/25 04:10:02;;;;;;;11.52;5.07;;;;;;;7.20;100.00;99562.69;5052572;28;20171;-45
2023/03/25 04:12:39;;;;;;;8.40;4.63;;;;;;;7.17;100.00;99558.38;5051707;28;20171;-43
2023/03/25 04:15:06;;;;;;;11.63;4.68;;;;;;;7.19;100.00;99566.25;5052101;28;20209;-48
2023/03/25 04:17:32;;;;;;;9.82;4.22;;;;;;;7.15;100.00;99559.34;5051955;28;20518;-43
2023/03/25 04:19:58;;;;;;;11.10;4.55;;;;;;;7.14;100.00;99557.63;5051465;28;20244;-45
2023/03/25 04:22:24;;;;;;;6.40;3.80;;;;;;;7.15;100.00;99543.34;5052026;28;20175;-46
2023/03/25 04:24:50;;;;;;;8.23;4.32;;;;;;;7.19;100.00;99553.84;5051256;28;20732;-48
2023/03/25 04:27:17;;;;;;;7.10;4.00;;;;;;;7.17;100.00;99562.81;5031858;28;20188;-48
2023/03/25 04:29:43;;;;;;;9.48;4.20;;;;;;;7.15;100.00;99564.66;5050540;28;20373;-48
2023/03/25 04:32:12;;;;;;;10.63;5.03;;;;;;;7.19;100.00;99559.16;5050143;28;20266;-49
2023/03/25 04:34:38;;;;;;;7.68;3.60;;;;;;;7.23;100.00;99568.72;5035113;28;20206;-49
2023/03/25 04:37:04;;;;;;;8.65;3.85;;;;;;;7.23;100.00;99559.88;5040076;28;20649;-50
2023/03/25 04:39:31;;;;;;;11.70;4.50;;;;;;;7.23;100.00;99565.19;5050452;28;20179;-50
2023/03/25 04:42:07;;;;;;;8.48;4.90;;;;;;;7.26;100.00;99562.41;5049210;28;20249;-49
2023/03/25 04:44:37;;;;;;;11.05;4.80;;;;;;;7.26;100.00;99559.75;5053393;28;20218;-49
2023/03/25 04:47:04;;;;;;;8.63;5.13;;;;;;;7.26;100.00;99565.09;5050203;28;20263;-48
2023/03/25 04:49:30;;;;;;;12.88;5.65;;;;;;;7.17;100.00;99558.38;5053387;28;20582;-49
2023/03/25 04:51:56;;;;;;;13.00;5.60;;;;;;;7.19;100.00;99564.50;5050052;28;20187;-47
2023/03/25 04:54:22;;;;;;;9.52;3.78;;;;;;;7.12;100.00;99560.34;5049881;28;20544;-49
2023/03/25 04:56:49;;;;;;;6.88;3.28;;;;;;;7.11;100.00;99561.28;5048943;28;20184;-50
2023/03/25 04:59:17;;;;;;;8.43;3.63;;;;;;;7.03;100.00;99558.09;5046819;28;20253;-48
2023/03/25 05:01:44;;;;;;;9.65;2.58;;;;;;;7.01;100.00;99567.94;5049343;28;20183;-48
2023/03/25 05:04:13;;;;;;;8.68;2.30;;;;;;;6.96;100.00;99559.31;5083232;28;20190;-45
2023/03/25 05:06:42;;;;;;;4.63;2.10;;;;;;;6.90;100.00;99555.09;5050068;28;20211;-42
2023/03/25 05:09:10;;;;;;;5.03;2.03;;;;;;;6.92;100.00;99555.03;5050183;28;20183;-43
2023/03/25 05:11:38;;;;;;;3.38;1.70;;;;;;;6.88;100.00;99569.41;5050309;28;20218;-46
2023/03/25 05:14:05;;;;;;;6.18;2.35;;;;;;;6.84;100.00;99576.66;5054367;28;20242;-45
2023/03/25 05:16:32;;;;;;;4.90;1.98;;;;;;;6.83;100.00;99556.31;5048549;28;20588;-43
2023/03/25 05:18:57;;;;;;;6.88;2.05;;;;;;;6.80;100.00;99549.34;5049692;28;20211;-44
2023/03/25 05:21:23;;;;;;;2.42;1.73;;;;;;;6.78;100.00;99555.66;5049598;28;20271;-45
2023/03/25 05:23:48;;;;;;;6.47;2.15;;;;;;;6.78;100.00;99558.31;5049623;28;20183;-43
2023/03/25 05:26:14;;;;;;;4.50;1.98;;;;;;;6.87;100.00;99554.41;5049370;28;20711;-43
2023/03/25 05:28:41;;;;;;;7.45;2.25;;;;;;;6.79;100.00;99568.88;5049181;28;20187;-45
2023/03/25 05:31:09;;;;;;;6.05;2.55;;;;;;;6.77;100.00;99569.88;5048508;28;20285;-45
2023/03/25 05:33:42;;;;;;;4.70;2.60;;;;;;;6.88;100.00;99564.94;5048786;28;20637;-44
2023/03/25 05:36:12;;;;;;;6.38;3.20;;;;;;;6.81;100.00;99572.34;5048926;28;20207;-42
2023/03/25 05:38:40;;;;;;;7.22;3.20;;;;;;;6.88;100.00;99574.75;5049408;28;20703;-42
2023/03/25 05:41:09;;;;;;;5.10;3.10;;;;;;;6.75;100.00;99582.38;5049149;28;20594;-42
2023/03/25 05:43:36;;;;;;;9.48;3.72;;;;;;;6.79;100.00;99568.88;5055228;23;20276;-49
2023/03/25 05:46:04;;;;;;;9.50;3.70;;;;;;;6.78;100.00;99567.16;5056281;28;20224;-49
2023/03/25 05:48:31;;;;;;;8.98;4.22;;;;;;;6.79;100.00;99576.88;5044041;28;20595;-48
2023/03/25 05:51:05;;;;;;;10.77;3.97;;;;;;;6.79;100.00;99587.50;5037778;28;20179;-48
2023/03/25 05:53:32;;;;;;;11.50;5.38;;;;;;;6.77;100.00;99589.38;5040147;28;20202;-50
2023/03/25 05:55:59;;;;;;;7.25;4.60;;;;;;;6.77;100.00;99576.06;5037923;28;20291;-47
2023/03/25 05:58:25;;;;;;;9.15;4.82;;;;;;;6.79;100.00;99581.34;5033943;28;20666;-51
2023/03/25 06:00:50;;;;;;;9.25;5.47;;;;;;;6.84;100.00;99594.44;5034731;28;20193;-48
2023/03/25 06:03:19;;;;;;;10.27;5.45;;;;;;;6.84;100.00;99587.31;5037684;28;20187;-48
2023/03/25 06:05:45;;;;;;;13.32;6.00;;;;;;;6.85;100.00;99585.53;5036790;28;20263;-48
2023/03/25 06:08:11;;;;;;;7.15;5.53;;;;;;;6.91;100.00;99586.13;5037690;28;20632;-48
2023/03/25 06:10:37;;;;;;;13.15;6.50;;;;;;;6.85;100.00;99591.72;5036003;28;20199;-48
2023/03/25 06:13:02;;;;;;;8.52;5.93;;;;;;;6.83;100.00;99590.06;5037495;28;20203;-50
2023/03/25 06:15:32;;;;;;;11.23;6.30;;;;;;;6.88;100.00;99594.25;5037428;28;20198;-47
2023/03/25 06:17:58;;;;;;;10.85;6.25;;;;;;;6.87;100.00;99597.84;5037319;28;20554;-48
2023/03/25 06:20:24;;;;;;;9.77;5.57;;;;;;;6.82;100.00;99594.50;5041499;28;20175;-44
2023/03/25 06:22:50;;;;;;;7.68;5.18;;;;;;;6.88;100.00;99593.38;5048403;28;20175;-49
2023/03/25 06:25:19;;;;;;;6.28;4.95;;;;;;;6.83;100.00;99596.25;5049411;28;20585;-43
2023/03/25 06:27:48;;;;;;;9.57;4.78;;;;;;;6.84;100.00;99594.44;5049656;28;20183;-45
2023/03/25 06:30:17;;;;;;;8.77;4.63;;;;;;;6.76;100.00;99600.09;5049545;28;20252;-43
2023/03/25 06:32:42;;;;;;;6.70;4.00;;;;;;;6.82;100.00;99599.81;5049951;28;20217;-48
2023/03/25 06:35:10;;;;;;;8.52;3.58;;;;;;;6.78;100.00;99607.09;5049773;28;20222;-46
2023/03/25 06:37:37;;;;;;;7.80;3.80;;;;;;;6.72;100.00;99601.16;5049668;28;20665;-43
2023/03/25 06:40:09;;;;;;;6.57;2.88;;;;;;;6.73;100.00;99605.53;5048475;28;20167;-42
2023/03/25 06:42:35;;;;;;;6.38;3.40;;;;;;;6.71;100.00;99602.06;5048637;28;20350;-46
2023/03/25 06:45:39;;;;;;;6.10;3.25;;;;;;;6.68;100.00;99620.84;4991846;28;20641;-44
2023/03/25 06:48:14;;;;;;;7.38;2.80;;;;;;;6.67;100.00;99608.44;4975265;28;20606;-44
2023/03/25 06:50:40;;;;;;;10.30;2.55;;;;;;;6.69;100.00;99614.59;5023799;28;20187;-44
2023/03/25 06:53:05;;;;;;;9.30;2.97;;;;;;;6.68;100.00;99610.19;5053558;28;20175;-47
2023/03/25 06:55:30;;;;;;;7.32;2.47;;;;;;;6.69;100.00;99612.81;5053899;28;20234;-44
2023/03/25 06:57:56;;;;;;;6.45;2.72;;;;;;;6.71;100.00;99623.38;5048578;28;20275;-42
2023/03/25 07:00:22;;;;;;;4.97;2.30;;;;;;;6.70;100.00;99619.00;5034299;28;20191;-42
2023/03/25 07:02:48;;;;;;;8.13;2.72;;;;;;;6.74;100.00;99613.47;5039933;28;20191;-43
2023/03/25 07:05:14;;;;;;;7.80;2.58;;;;;;;6.78;100.00;99619.53;5042614;28;20241;-41
2023/03/25 07:07:40;;;;;;;8.68;2.30;;;;;;;6.90;100.00;99624.34;5041496;28;20199;-42
2023/03/25 07:10:06;;;;;;;7.63;2.55;;;;;;;6.82;100.00;99613.13;5039884;28;20175;-43
2023/03/25 07:12:33;;;;;;;8.02;1.98;;;;;;;6.90;100.00;99623.47;5037486;28;20196;-44
2023/03/25 07:14:58;;;;;;;6.95;2.08;;;;;;;6.98;100.00;99619.56;5039853;28;20230;-42
2023/03/25 07:17:24;;;;;;;11.63;2.65;;;;;;;6.99;100.00;99610.63;5041019;28;20628;-42
2023/03/25 07:19:50;;;;;;;7.82;1.88;;;;;;;7.16;100.00;99619.69;5043535;28;20218;-44
2023/03/25 07:22:16;;;;;;;9.43;2.03;;;;;;;7.01;100.00;99619.41;5042053;28;20187;-41
2023/03/25 07:24:41;;;;;;;10.55;2.58;;;;;;;7.04;100.00;99615.78;5041878;28;20211;-42
2023/03/25 07:27:10;;;;;;;7.45;1.88;;;;;;;7.07;100.00;99618.28;5041267;28;20253;-42
2023/03/25 07:29:36;;;;;;;10.43;2.30;;;;;;;7.08;100.00;99612.00;5039484;28;20250;-43
2023/03/25 07:32:01;;;;;;;12.18;2.38;;;;;;;7.12;100.00;99623.41;5037813;28;20196;-41
2023/03/25 07:34:27;;;;;;;9.52;2.60;;;;;;;7.12;100.00;99620.75;5023788;28;20191;-43
2023/03/25 07:36:52;;;;;;;10.63;2.72;;;;;;;7.31;100.00;99618.16;5044295;28;20208;-44
2023/03/25 07:39:18;;;;;;;8.98;2.60;;;;;;;7.29;100.00;99615.56;5040601;28;20211;-42
2023/03/25 07:41:43;;;;;;;11.25;2.72;;;;;;;7.32;100.00;99625.19;5044076;28;20194;-42
2023/03/25 07:44:20;;;;;;;11.57;2.80;;;;;;;7.26;100.00;99626.34;5039449;28;20281;-44
2023/03/25 07:46:47;;;;;;;7.25;2.42;;;;;;;7.22;100.00;99630.94;5041394;28;20200;-43
2023/03/25 07:49:15;;;;;;;9.27;2.22;;;;;;;7.23;100.00;99632.66;5046366;28;20274;-44
2023/03/25 07:51:41;;;;;;;7.40;2.08;;;;;;;7.20;100.00;99631.94;5046265;28;20176;-45
2023/03/25 07:54:07;;;;;;;12.73;2.80;;;;;;;7.18;100.00;99637.31;5036674;28;20190;-44
2023/03/25 07:56:32;;;;;;;12.95;2.60;;;;;;;7.27;100.00;99633.41;5040916;28;20572;-43
2023/03/25 07:58:58;;;;;;;7.75;2.75;;;;;;;7.31;100.00;99629.66;5046271;28;20594;-41
2023/03/25 08:01:23;;;;;;;5.97;2.50;;;;;;;7.24;100.00;99633.53;5053524;28;20190;-43
2023/03/25 08:03:49;;;;;;;6.68;2.10;;;;;;;7.28;100.00;99621.81;5042677;28;20616;-43
2023/03/25 08:06:14;;;;;;;11.00;3.00;;;;;;;7.47;100.00;99627.19;5032004;28;20227;-43
2023/03/25 08:08:40;;;;;;;6.82;3.00;;;;;;;7.43;100.00;99626.47;5035207;28;20188;-45
2023/03/25 08:11:06;;;;;;;6.07;2.80;;;;;;;7.48;100.00;99633.38;5045934;28;20207;-44
2023/03/25 08:13:32;;;;;;;11.65;3.00;;;;;;;7.51;100.00;99630.59;5040841;28;20188;-45
2023/03/25 08:15:57;;;;;;;5.53;2.67;;;;;;;7.85;100.00;99627.25;5038538;28;20583;-48
2023/03/25 08:18:23;;;;;;;7.97;3.60;;;;;;;8.03;100.00;99633.53;5036959;28;20264;-48
2023/03/25 08:20:49;;;;;;;4.65;2.13;;;;;;;7.99;100.00;99622.13;5039140;28;20188;-48
2023/03/25 08:23:17;;;;;;;6.75;2.60;;;;;;;7.99;100.00;99621.25;5040235;28;20196;-47
2023/03/25 08:25:43;;;;;;;5.25;2.50;;;;;;;7.97;100.00;99620.47;5041282;28;20767;-48
2023/03/25 08:28:09;;;;;;;7.78;2.78;;;;;;;8.05;100.00;99618.31;5043969;28;20196;-48
2023/03/25 08:30:37;;;;;;;7.50;3.10;;;;;;;8.24;100.00;99616.50;5045808;28;20674;-47
2023/03/25 08:33:05;;;;;;;7.47;2.70;;;;;;;8.28;100.00;99611.88;5033584;28;20207;-48
2023/03/25 08:35:33;;;;;;;12.02;2.88;;;;;;;8.24;100.00;99610.28;5039619;28;20204;-48
2023/03/25 08:38:00;;;;;;;7.40;3.05;;;;;;;8.41;100.00;99622.84;5039589;28;20202;-47
2023/03/25 08:40:26;;;;;;;8.48;2.60;;;;;;;8.41;100.00;99617.50;5043333;28;20186;-47
2023/03/25 08:42:52;;;;;;;8.00;2.30;;;;;;;8.32;100.00;99607.25;5040703;28;20209;-46
2023/03/25 08:45:18;;;;;;;10.10;3.17;;;;;;;8.42;100.00;99606.75;5036572;28;20227;-46
2023/03/25 08:47:44;;;;;;;9.38;2.85;;;;;;;9.19;100.00;99612.72;5032636;28;20187;-47
2023/03/25 08:50:10;;;;;;;8.30;2.78;;;;;;;9.03;100.00;99610.84;5038081;28;20780;-44
2023/03/25 08:52:36;;;;;;;9.82;2.80;;;;;;;8.74;100.00;99593.59;5040208;28;20219;-45
2023/03/25 08:55:02;;;;;;;8.82;2.20;;;;;;;8.90;100.00;99593.72;5048416;28;20213;-44
2023/03/25 08:57:28;;;;;;;8.80;2.22;;;;;;;8.96;100.00;99597.84;5035735;28;20227;-42
2023/03/25 08:59:53;;;;;;;7.95;2.40;;;;;;;8.74;100.00;99590.94;5039198;28;20637;-44
2023/03/25 09:02:19;;;;;;;11.43;2.85;;;;;;;8.68;100.00;99601.06;5041400;28;20194;-43
2023/03/25 09:04:47;;;;;;;9.52;2.53;;;;;;;8.51;100.00;99596.59;5044358;28;20214;-44
2023/03/25 09:07:12;;;;;;;9.95;2.70;;;;;;;8.44;100.00;99596.88;5037898;28;20617;-42
2023/03/25 09:09:39;;;;;;;8.63;2.70;;;;;;;8.29;100.00;99602.94;5032918;28;20184;-43
2023/03/25 09:12:05;;;;;;;5.07;2.22;;;;;;;8.35;100.00;99605.31;5045607;28;20672;-43
2023/03/25 09:14:31;;;;;;;7.60;2.20;;;;;;;8.49;100.00;99610.00;5048824;28;20179;-42
2023/03/25 09:16:56;;;;;;;12.95;2.97;;;;;;;8.42;100.00;99609.44;5038314;28;20271;-43
2023/03/25 09:19:22;;;;;;;7.68;2.47;;;;;;;8.58;100.00;99598.84;5038901;28;20665;-42
2023/03/25 09:21:48;;;;;;;5.40;2.33;;;;;;;8.42;100.00;99609.44;5034825;28;20576;-43
2023/03/25 09:24:13;;;;;;;7.80;2.40;;;;;;;8.41;100.00;99607.69;5045005;28;20176;-44
2023/03/25 09:26:39;;;;;;;8.75;2.47;;;;;;;8.31;100.00;99605.50;5029349;28;20803;-43
2023/03/25 09:29:05;;;;;;;7.10;2.30;;;;;;;8.29;100.00;99600.28;5039329;28;20201;-44
2023/03/25 09:31:32;;;;;;;9.55;2.65;;;;;;;8.30;100.00;99603.78;5041590;28;20184;-44
2023/03/25 09:33:57;;;;;;;7.85;2.25;;;;;;;8.35;100.00;99607.97;5045115;28;20251;-44
2023/03/25 09:36:23;;;;;;;7.97;2.63;;;;;;;8.20;100.00;99612.25;5033767;28;20208;-43
2023/03/25 09:38:49;;;;;;;9.82;2.63;;;;;;;8.33;100.00;99596.50;5053397;28;20222;-43
2023/03/25 09:41:29;;;;;;;10.60;2.92;;;;;;;8.29;100.00;99599.38;5031513;28;20222;-42
2023/03/25 09:44:25;;;;;;;11.02;2.75;;;;;;;8.57;100.00;99602.47;5041544;28;20215;-44
2023/03/25 09:46:51;;;;;;;11.55;2.50;;;;;;;8.51;100.00;99586.75;5012647;28;20647;-43
2023/03/25 09:49:22;;;;;;;9.95;2.38;;;;;;;8.57;100.00;99590.91;5029684;28;20164;-43
2023/03/25 09:51:50;;;;;;;9.77;2.38;;;;;;;8.78;100.00;99589.84;5045853;28;20604;-43
2023/03/25 09:54:22;;;;;;;6.95;2.42;;;;;;;9.03;100.00;99588.56;5046233;28;20637;-42
2023/03/25 09:56:50;;;;;;;7.53;2.63;;;;;;;9.23;100.00;99584.88;5044099;28;20180;-44
2023/03/25 09:59:27;;;;;;;8.98;2.65;;;;;;;9.15;100.00;99592.44;5035794;28;20188;-44
2023/03/25 10:02:26;;;;;;;7.55;2.17;;;;;;;9.13;100.00;99586.31;5032010;28;20191;-43
2023/03/25 10:05:14;;;;;;;11.70;2.35;;;;;;;9.10;100.00;99598.03;5033280;28;20205;-42
2023/03/25 10:07:45;;;;;;;7.57;2.33;;;;;;;9.01;100.00;99595.84;5030938;28;20200;-45
2023/03/25 10:10:22;;;;;;;9.40;2.22;;;;;;;8.92;100.00;99601.63;5027874;28;20179;-44
2023/03/25 10:13:03;;;;;;;9.75;2.22;;;;;;;8.81;100.00;99588.81;5037916;28;20633;-42
2023/03/25 10:15:47;;;;;;;8.45;2.60;;;;;;;8.64;100.00;99590.53;5031198;28;20222;-41
2023/03/25 10:18:37;;;;;;;4.63;2.00;;;;;;;8.48;100.00;99604.72;5040059;28;20245;-43
2023/03/25 10:21:29;;;;;;;6.95;1.60;;;;;;;8.35;100.00;99599.09;5044048;28;20187;-41
2023/03/25 10:24:10;;;;;;;6.25;1.55;;;;;;;8.25;100.00;99609.34;5046733;28;20184;-45
2023/03/25 10:26:40;;;;;;;4.13;1.30;;;;;;;8.10;100.00;99600.28;5047684;28;20226;-41
2023/03/25 10:29:12;;;;;;;6.00;2.03;;;;;;;8.14;100.00;99598.34;5040563;28;20196;-43
2023/03/25 10:31:48;;;;;;;9.05;1.73;;;;;;;7.93;100.00;99602.88;5036201;28;20196;-44
2023/03/25 10:34:17;;;;;;;6.05;1.60;;;;;;;8.05;100.00;99594.31;5037903;28;20186;-43
2023/03/25 10:36:56;;;;;;;8.55;1.67;;;;;;;8.10;100.00;99602.09;5039115;28;20293;-42
2023/03/25 10:39:23;;;;;;;8.95;1.98;;;;;;;8.06;100.00;99612.03;5042850;28;20198;-43
2023/03/25 10:42:00;;;;;;;3.80;1.40;;;;;;;7.84;100.00;99601.50;5036213;28;20459;-43
2023/03/25 10:44:27;;;;;;;4.78;1.42;;;;;;;7.81;100.00;99602.53;5033305;28;20183;-45
2023/03/25 10:47:05;;;;;;;6.88;1.58;;;;;;;7.64;100.00;99608.63;5032998;28;20626;-45
2023/03/25 10:49:32;;;;;;;6.90;1.75;;;;;;;7.72;100.00;99618.06;5033666;28;20302;-44
2023/03/25 10:51:59;;;;;;;7.60;2.08;;;;;;;7.78;100.00;99628.44;5033238;28;20172;-45
2023/03/25 10:54:33;;;;;;;9.27;1.70;;;;;;;7.73;100.00;99626.00;5032516;28;20654;-48
2023/03/25 10:57:02;;;;;;;6.63;1.80;;;;;;;7.90;100.00;99617.22;5033019;28;20169;-44
2023/03/25 10:59:44;;;;;;;7.40;2.08;;;;;;;8.00;100.00;99629.22;5032633;28;20184;-48
2023/03/25 11:02:16;;;;;;;6.68;2.03;;;;;;;8.16;100.00;99645.34;5031898;28;20178;-48
2023/03/25 11:04:44;;;;;;;9.80;2.22;;;;;;;8.01;100.00;99635.41;5033167;28;20666;-45
2023/03/25 11:07:18;;;;;;;11.88;2.40;;;;;;;7.88;100.00;99635.09;5033302;28;20196;-44
2023/03/25 11:09:44;;;;;;;7.90;2.20;;;;;;;7.79;100.00;99640.88;5015622;28;20234;-46
2023/03/25 11:12:10;;;;;;;10.82;2.67;;;;;;;7.92;100.00;99635.84;5033112;28;20175;-46
2023/03/25 11:14:38;;;;;;;10.07;2.45;;;;;;;7.96;100.00;99632.06;5033335;28;20176;-44
2023/03/25 11:17:13;;;;;;;11.38;2.40;;;;;;;7.66;100.00;99640.56;5032987;28;20165;-49
2023/03/25 11:19:51;;;;;;;9.68;2.10;;;;;;;7.72;100.00;99640.28;5035036;28;20282;-47
2023/03/25 11:22:30;;;;;;;10.77;1.98;;;;;;;7.61;100.00;99645.25;5041522;28;20192;-47
2023/03/25 11:25:01;;;;;;;6.60;1.63;;;;;;;7.47;100.00;99642.31;5042673;28;20207;-47
2023/03/25 11:27:28;;;;;;;9.00;1.85;;;;;;;7.45;100.00;99631.72;5038436;28;20183;-47
2023/03/25 11:30:06;;;;;;;7.00;1.63;;;;;;;7.53;100.00;99642.91;5041511;28;20273;-48
2023/03/25 11:32:37;;;;;;;8.43;1.45;;;;;;;7.51;100.00;99630.59;5051428;28;20209;-49
2023/03/25 11:35:15;;;;;;;8.02;1.80;;;;;;;7.54;100.00;99628.66;5037888;28;20514;-48
2023/03/25 11:37:47;;;;;;;10.80;1.70;;;;;;;7.71;100.00;99627.00;5035984;28;20183;-47
2023/03/25 11:40:17;;;;;;;6.43;1.65;;;;;;;7.95;100.00;99627.69;5037194;28;20263;-47
2023/03/25 11:42:52;;;;;;;10.82;2.10;;;;;;;8.21;100.00;99626.44;5039940;28;20191;-48
2023/03/25 11:45:25;;;;;;;6.63;1.80;;;;;;;8.64;100.00;99624.41;5036635;28;20215;-48